createdAt,value
2019-01-25T00:02:06.292Z,14.83
2019-01-25T00:04:36.665Z,8.68
2019-01-25T00:07:07.061Z,8.68
2019-01-25T00:09:38.699Z,8.25
2019-01-25T00:12:09.037Z,10.40
2019-01-25T00:14:39.363Z,9.30
2019-01-25T00:17:09.755Z,10.60
2019-01-25T00:19:40.141Z,9.48
2019-01-25T00:22:10.597Z,16.02
2019-01-25T00:24:40.921Z,7.83
2019-01-25T00:27:11.274Z,10.25
2019-01-25T00:29:41.611Z,8.33
2019-01-25T00:32:12.052Z,7.83
2019-01-25T00:34:42.461Z,7.80
2019-01-25T00:37:12.825Z,7.30
2019-01-25T00:39:43.489Z,9.13
2019-01-25T00:42:13.814Z,11.83
2019-01-25T00:44:44.161Z,8.15
2019-01-25T00:47:14.528Z,9.53
2019-01-25T00:49:44.909Z,9.65
2019-01-25T00:52:15.243Z,10.00
2019-01-25T00:54:45.603Z,9.10
2019-01-25T00:57:15.958Z,8.70
2019-01-25T00:59:46.269Z,9.13
2019-01-25T01:02:16.665Z,7.55
2019-01-25T01:04:47.089Z,10.08
2019-01-25T01:07:17.405Z,8.00
2019-01-25T01:09:48.779Z,8.28
2019-01-25T01:12:19.112Z,7.92
2019-01-25T01:14:49.461Z,7.55
2019-01-25T01:17:19.829Z,9.98
2019-01-25T01:19:50.169Z,7.37
2019-01-25T01:22:20.520Z,7.47
2019-01-25T01:24:50.841Z,7.37
2019-01-25T01:27:21.233Z,6.58
2019-01-25T01:29:51.576Z,7.28
2019-01-25T01:32:21.934Z,9.08
2019-01-25T01:34:53.345Z,6.78
2019-01-25T01:37:23.673Z,6.35
2019-01-25T01:39:54.203Z,9.05
2019-01-25T01:42:24.613Z,7.22
2019-01-25T01:44:54.985Z,6.58
2019-01-25T01:47:25.326Z,12.33
2019-01-25T01:49:55.703Z,7.25
2019-01-25T01:52:26.029Z,7.83
2019-01-25T01:54:56.425Z,9.30
2019-01-25T01:57:26.764Z,7.35
2019-01-25T01:59:57.121Z,5.35
2019-01-25T02:02:27.525Z,9.40
2019-01-25T02:04:57.841Z,8.58
2019-01-25T02:07:28.215Z,7.85
2019-01-25T02:09:59.277Z,7.20
2019-01-25T02:12:29.637Z,5.78
2019-01-25T02:14:59.981Z,7.25
2019-01-25T02:17:30.361Z,8.78
2019-01-25T02:20:00.690Z,7.97
2019-01-25T02:22:31.013Z,4.80
2019-01-25T02:25:01.361Z,7.70
2019-01-25T02:27:31.759Z,6.33
2019-01-25T02:30:02.153Z,7.50
2019-01-25T02:32:32.553Z,8.93
2019-01-25T02:35:02.913Z,4.10
2019-01-25T02:37:33.297Z,6.75
2019-01-25T02:40:06.305Z,7.85
2019-01-25T02:42:36.678Z,6.50
2019-01-25T02:45:08.560Z,5.95
2019-01-25T02:47:38.910Z,5.12
2019-01-25T02:50:11.997Z,5.55
2019-01-25T02:52:42.399Z,8.83
2019-01-25T02:55:13.081Z,6.75
2019-01-25T02:57:43.428Z,9.63
2019-01-25T03:00:19.057Z,4.42
2019-01-25T03:02:49.988Z,5.28
2019-01-25T03:05:20.933Z,4.90
2019-01-25T03:07:51.946Z,4.08
2019-01-25T03:10:28.646Z,5.55
2019-01-25T03:12:54.762Z,6.40
2019-01-25T03:15:28.113Z,8.05
2019-01-25T03:17:58.425Z,8.58
2019-01-25T03:20:28.781Z,7.22
2019-01-25T03:22:59.145Z,6.12
2019-01-25T03:25:29.709Z,9.50
2019-01-25T03:28:00.094Z,5.67
2019-01-25T03:30:30.499Z,6.42
2019-01-25T03:33:00.858Z,5.30
2019-01-25T03:35:31.209Z,7.20
2019-01-25T03:38:01.598Z,6.60
2019-01-25T03:40:31.913Z,5.20
2019-01-25T03:43:02.243Z,6.10
2019-01-25T03:45:32.641Z,6.58
2019-01-25T03:48:02.943Z,5.40
2019-01-25T03:50:34.342Z,8.50
2019-01-25T03:53:04.681Z,6.40
2019-01-25T03:55:35.017Z,8.48
2019-01-25T03:58:05.361Z,5.30
2019-01-25T04:00:35.730Z,4.37
2019-01-25T04:03:06.445Z,6.37
2019-01-25T04:05:37.773Z,4.58
2019-01-25T04:08:08.097Z,4.72
2019-01-25T04:10:39.384Z,5.78
2019-01-25T04:13:09.721Z,5.95
2019-01-25T04:15:40.053Z,4.42
2019-01-25T04:18:10.384Z,4.85
2019-01-25T04:20:40.765Z,4.60
2019-01-25T04:23:11.066Z,8.35
2019-01-25T04:25:41.544Z,4.60
2019-01-25T04:28:11.857Z,4.20
2019-01-25T04:30:42.193Z,8.05
2019-01-25T04:33:12.569Z,5.08
2019-01-25T04:35:42.941Z,5.50
2019-01-25T04:38:13.312Z,5.25
2019-01-25T04:40:44.149Z,4.55
2019-01-25T04:43:14.457Z,4.47
2019-01-25T04:45:44.792Z,4.00
2019-01-25T04:48:16.029Z,4.40
2019-01-25T04:50:46.362Z,3.62
2019-01-25T04:53:16.689Z,5.90
2019-01-25T04:55:47.039Z,4.25
2019-01-25T04:58:18.668Z,4.35
2019-01-25T05:00:49.137Z,6.00
2019-01-25T05:03:19.439Z,4.70
2019-01-25T05:05:49.763Z,3.95
2019-01-25T05:08:21.213Z,5.80
2019-01-25T05:10:54.102Z,6.58
2019-01-25T05:13:24.445Z,6.45
2019-01-25T05:15:54.773Z,5.30
2019-01-25T05:18:25.109Z,5.60
2019-01-25T05:20:55.444Z,3.70
2019-01-25T05:23:25.789Z,4.70
2019-01-25T05:25:56.118Z,4.97
2019-01-25T05:28:26.506Z,5.28
2019-01-25T05:30:59.599Z,4.50
2019-01-25T05:33:29.940Z,5.45
2019-01-25T05:36:00.245Z,4.35
2019-01-25T05:38:30.605Z,4.10
2019-01-25T05:41:02.477Z,6.30
2019-01-25T05:43:40.749Z,5.65
2019-01-25T05:46:11.483Z,4.50
2019-01-25T05:48:41.813Z,6.40
2019-01-25T05:51:12.121Z,5.72
2019-01-25T05:53:50.193Z,4.60
2019-01-25T05:56:22.553Z,5.35
2019-01-25T05:58:52.901Z,4.12
2019-01-25T06:01:23.214Z,5.37
2019-01-25T06:03:53.578Z,5.65
2019-01-25T06:06:23.885Z,5.00
2019-01-25T06:08:54.251Z,5.37
2019-01-25T06:11:24.863Z,7.08
2019-01-25T06:13:55.206Z,4.90
2019-01-25T06:16:25.527Z,5.83
2019-01-25T06:18:55.865Z,6.12
2019-01-25T06:21:26.157Z,5.28
2019-01-25T06:23:56.489Z,5.53
2019-01-25T06:26:26.857Z,4.30
2019-01-25T06:28:57.212Z,4.62
2019-01-25T06:31:27.581Z,4.05
2019-01-25T06:33:57.955Z,5.28
2019-01-25T06:36:28.311Z,4.62
2019-01-25T06:38:58.609Z,5.90
2019-01-25T06:41:30.022Z,5.20
2019-01-25T06:44:00.377Z,4.65
2019-01-25T06:46:30.763Z,5.45
2019-01-25T06:49:01.081Z,4.78
2019-01-25T06:51:31.401Z,4.55
2019-01-25T06:54:01.704Z,5.42
2019-01-25T06:56:32.050Z,5.58
2019-01-25T06:59:14.473Z,5.58
2019-01-25T07:02:02.631Z,5.87
2019-01-25T07:04:32.931Z,7.78
2019-01-25T07:07:05.145Z,5.30
2019-01-25T07:09:35.493Z,4.78
2019-01-25T07:12:05.823Z,5.65
2019-01-25T07:14:36.177Z,6.30
2019-01-25T07:17:06.521Z,5.40
2019-01-25T07:19:37.913Z,4.50
2019-01-25T07:22:08.311Z,3.60
2019-01-25T07:24:38.666Z,7.30
2019-01-25T07:27:08.966Z,5.70
2019-01-25T07:29:39.315Z,4.15
2019-01-25T07:32:09.809Z,4.70
2019-01-25T07:34:40.113Z,4.87
2019-01-25T07:37:10.450Z,5.55
2019-01-25T07:39:40.785Z,6.00
2019-01-25T07:42:11.081Z,7.30
2019-01-25T07:44:41.582Z,6.92
2019-01-25T07:47:11.893Z,5.47
2019-01-25T07:49:42.245Z,4.72
2019-01-25T07:52:12.559Z,6.42
2019-01-25T07:54:42.981Z,6.50
2019-01-25T07:57:13.353Z,5.85
2019-01-25T07:59:43.657Z,6.65
2019-01-25T08:02:14.038Z,7.62
2019-01-25T08:04:44.366Z,7.20
2019-01-25T08:07:14.730Z,10.72
2019-01-25T08:09:45.028Z,6.00
2019-01-25T08:12:15.428Z,5.40
2019-01-25T08:14:45.916Z,5.10
2019-01-25T08:17:16.258Z,5.05
2019-01-25T08:19:46.740Z,6.25
2019-01-25T08:22:17.185Z,5.87
2019-01-25T08:24:47.509Z,5.35
2019-01-25T08:27:17.913Z,6.95
2019-01-25T08:29:48.220Z,5.55
2019-01-25T08:32:18.581Z,6.53
2019-01-25T08:34:48.989Z,6.10
2019-01-25T08:37:19.352Z,6.30
2019-01-25T08:39:49.685Z,6.08
2019-01-25T08:42:21.478Z,8.00
2019-01-25T08:44:51.874Z,4.85
2019-01-25T08:47:23.117Z,5.40
2019-01-25T08:49:57.778Z,6.80
2019-01-25T08:52:25.526Z,5.40
2019-01-25T08:54:55.975Z,5.67
2019-01-25T08:57:26.290Z,5.22
2019-01-25T08:59:56.676Z,5.90
2019-01-25T09:02:27.070Z,8.20
2019-01-25T09:04:57.511Z,6.75
2019-01-25T09:07:27.879Z,4.75
2019-01-25T09:09:58.291Z,9.75
2019-01-25T09:12:29.768Z,5.53
2019-01-25T09:15:01.269Z,6.08
2019-01-25T09:17:33.301Z,7.22
2019-01-25T09:20:04.121Z,6.53
2019-01-25T09:22:34.633Z,8.55
2019-01-25T09:25:05.909Z,5.95
2019-01-25T09:27:36.357Z,5.40
2019-01-25T09:30:09.513Z,5.83
2019-01-25T09:32:40.135Z,8.63
2019-01-25T09:35:10.793Z,7.03
2019-01-25T09:37:41.333Z,7.12
2019-01-25T09:40:14.679Z,7.58
2019-01-25T09:42:46.333Z,4.80
2019-01-25T09:45:17.330Z,5.87
2019-01-25T09:47:47.705Z,5.75
2019-01-25T09:50:18.897Z,6.40
2019-01-25T09:52:52.430Z,4.83
2019-01-25T09:55:24.656Z,4.97
2019-01-25T09:57:57.037Z,5.10
2019-01-25T10:00:30.592Z,7.28
2019-01-25T10:03:00.973Z,7.85
2019-01-25T10:05:31.498Z,5.72
2019-01-25T10:08:01.850Z,5.90
2019-01-25T10:10:32.228Z,8.05
2019-01-25T10:13:03.252Z,5.90
2019-01-25T10:15:33.589Z,7.40
2019-01-25T10:18:03.987Z,7.85
2019-01-25T10:20:34.336Z,6.67
2019-01-25T10:23:05.217Z,6.58
2019-01-25T10:25:35.643Z,7.95
2019-01-25T10:28:06.000Z,6.28
2019-01-25T10:30:37.189Z,6.00
2019-01-25T10:33:08.491Z,6.00
2019-01-25T10:35:38.830Z,8.03
2019-01-25T10:38:09.174Z,5.75
2019-01-25T10:40:39.569Z,6.90
2019-01-25T10:43:09.977Z,6.75
2019-01-25T10:45:41.056Z,6.25
2019-01-25T10:48:12.486Z,7.70
2019-01-25T10:50:42.809Z,7.60
2019-01-25T10:53:13.125Z,6.20
2019-01-25T10:55:43.522Z,7.60
2019-01-25T10:58:13.833Z,7.28
2019-01-25T11:00:44.233Z,5.25
2019-01-25T11:03:14.546Z,6.05
2019-01-25T11:05:44.929Z,7.72
2019-01-25T11:08:15.241Z,5.72
2019-01-25T11:10:45.637Z,7.12
2019-01-25T11:13:15.961Z,6.60
2019-01-25T11:15:46.353Z,6.20
2019-01-25T11:18:16.769Z,9.50
2019-01-25T11:20:48.673Z,6.17
2019-01-25T11:23:19.037Z,13.18
2019-01-25T11:25:51.461Z,9.90
2019-01-25T11:28:22.770Z,6.20
2019-01-25T11:31:19.157Z,8.00
2019-01-25T11:33:49.506Z,8.00
2019-01-25T11:36:20.809Z,5.90
2019-01-25T11:38:51.192Z,9.48
2019-01-25T11:41:22.589Z,5.50
2019-01-25T11:43:53.251Z,5.85
2019-01-25T11:46:24.446Z,8.48
2019-01-25T11:48:55.521Z,8.70
2019-01-25T11:51:25.838Z,9.45
2019-01-25T11:53:56.189Z,6.40
2019-01-25T11:56:26.597Z,7.70
2019-01-25T11:58:56.925Z,9.28
2019-01-25T12:01:27.235Z,7.45
2019-01-25T12:03:57.573Z,8.90
2019-01-25T12:06:27.925Z,7.85
2019-01-25T12:08:58.417Z,8.60
2019-01-25T12:11:30.936Z,7.87
2019-01-25T12:14:01.388Z,5.35
2019-01-25T12:16:31.703Z,9.13
2019-01-25T12:19:02.182Z,6.53
2019-01-25T12:21:40.103Z,6.75
2019-01-25T12:24:10.535Z,7.53
2019-01-25T12:26:40.894Z,7.45
2019-01-25T12:29:11.293Z,6.55
2019-01-25T12:31:41.613Z,7.78
2019-01-25T12:34:12.013Z,6.72
2019-01-25T12:36:42.349Z,10.53
2019-01-25T12:39:13.625Z,7.25
2019-01-25T12:41:43.989Z,9.28
2019-01-25T12:44:14.421Z,7.65
2019-01-25T12:46:44.775Z,5.50
2019-01-25T12:49:15.167Z,8.70
2019-01-25T12:51:55.574Z,8.20
2019-01-25T12:54:25.943Z,9.33
2019-01-25T12:56:56.345Z,10.88
2019-01-25T12:59:26.691Z,8.65
2019-01-25T13:01:57.086Z,7.25
2019-01-25T13:04:27.485Z,9.70
2019-01-25T13:06:57.893Z,9.40
2019-01-25T13:09:28.271Z,11.45
2019-01-25T13:11:58.709Z,8.83
2019-01-25T13:14:29.167Z,8.68
2019-01-25T13:16:59.579Z,7.92
2019-01-25T13:19:30.062Z,8.55
2019-01-25T13:22:00.421Z,9.50
2019-01-25T13:24:30.997Z,8.48
2019-01-25T13:27:01.397Z,10.68
2019-01-25T13:29:31.767Z,8.95
2019-01-25T13:32:02.097Z,9.85
2019-01-25T13:34:32.490Z,7.10
2019-01-25T13:37:02.897Z,7.80
2019-01-25T13:39:33.390Z,7.80
2019-01-25T13:42:03.949Z,6.25
2019-01-25T13:44:34.797Z,7.72
2019-01-25T13:47:05.203Z,11.68
2019-01-25T13:49:35.613Z,9.58
2019-01-25T13:52:05.917Z,8.95
2019-01-25T13:54:36.313Z,8.30
2019-01-25T13:57:06.713Z,11.45
2019-01-25T13:59:37.121Z,9.30
2019-01-25T14:02:07.635Z,9.05
2019-01-25T14:04:38.393Z,9.40
2019-01-25T14:07:08.871Z,11.40
2019-01-25T14:09:39.541Z,11.97
2019-01-25T14:12:10.181Z,9.10
2019-01-25T14:14:41.691Z,10.28
2019-01-25T14:17:12.225Z,8.43
2019-01-25T14:19:42.641Z,11.93
2019-01-25T14:22:13.218Z,8.80
2019-01-25T14:24:43.663Z,12.25
2019-01-25T14:27:14.449Z,7.37
2019-01-25T14:29:45.105Z,10.82
2019-01-25T14:32:15.719Z,9.38
2019-01-25T14:34:46.194Z,12.20
2019-01-25T14:37:16.753Z,9.78
2019-01-25T14:39:47.629Z,8.15
2019-01-25T14:42:22.751Z,7.45
2019-01-25T14:44:59.218Z,8.08
2019-01-25T14:47:29.962Z,9.80
2019-01-25T14:50:09.846Z,8.03
2019-01-25T14:52:41.265Z,8.80
2019-01-25T14:55:11.753Z,10.88
2019-01-25T14:57:42.323Z,10.10
2019-01-25T15:00:12.808Z,9.93
2019-01-25T15:02:43.640Z,10.10
2019-01-25T15:05:20.072Z,9.28
2019-01-25T15:07:52.542Z,8.98
2019-01-25T15:10:25.924Z,10.50
2019-01-25T15:12:59.054Z,13.90
2019-01-25T15:15:29.582Z,8.55
2019-01-25T15:18:00.065Z,9.40
2019-01-25T15:20:30.770Z,12.10
2019-01-25T15:23:13.217Z,12.95
2019-01-25T15:25:46.758Z,11.12
2019-01-25T15:28:19.766Z,10.82
2019-01-25T15:30:55.924Z,12.03
2019-01-25T15:33:26.363Z,18.82
2019-01-25T15:35:56.998Z,15.03
2019-01-25T15:38:27.836Z,11.18
2019-01-25T15:40:58.683Z,10.95
2019-01-25T15:43:29.312Z,12.95
2019-01-25T15:46:00.031Z,11.85
2019-01-25T15:48:30.662Z,12.75
2019-01-25T15:51:01.129Z,13.55
2019-01-25T15:53:31.509Z,11.63
2019-01-25T15:56:01.865Z,12.05
2019-01-25T15:58:32.309Z,10.25
2019-01-25T16:01:02.867Z,11.10
2019-01-25T16:03:33.212Z,15.00
2019-01-25T16:06:03.746Z,14.20
2019-01-25T16:08:35.943Z,14.98
2019-01-25T16:11:06.353Z,14.55
2019-01-25T16:13:36.763Z,12.82
2019-01-25T16:16:07.152Z,16.67
2019-01-25T16:18:37.487Z,12.65
2019-01-25T16:21:07.821Z,13.72
2019-01-25T16:23:38.156Z,18.32
2019-01-25T16:26:08.567Z,12.07
2019-01-25T16:28:38.906Z,17.52
2019-01-25T16:31:09.238Z,12.85
2019-01-25T16:33:39.717Z,15.28
2019-01-25T16:36:10.094Z,16.67
2019-01-25T16:38:40.457Z,16.32
2019-01-25T16:41:10.773Z,15.55
2019-01-25T16:43:41.139Z,17.52
2019-01-25T16:46:12.834Z,13.13
2019-01-25T16:48:43.149Z,15.48
2019-01-25T16:51:13.529Z,17.65
2019-01-25T16:53:43.853Z,16.27
2019-01-25T16:56:14.229Z,14.18
2019-01-25T16:58:44.625Z,15.70
2019-01-25T17:01:14.972Z,19.12
2019-01-25T17:03:45.397Z,16.73
2019-01-25T17:06:15.713Z,17.10
2019-01-25T17:08:46.049Z,16.62
2019-01-25T17:11:16.411Z,17.60
2019-01-25T17:13:46.733Z,16.90
2019-01-25T17:16:17.140Z,18.77
2019-01-25T17:18:47.608Z,17.07
2019-01-25T17:21:18.043Z,19.02
2019-01-25T17:23:48.513Z,21.50
2019-01-25T17:26:19.023Z,19.50
2019-01-25T17:28:49.430Z,21.73
2019-01-25T17:31:19.801Z,24.05
2019-01-25T17:33:50.149Z,17.92
2019-01-25T17:36:20.493Z,20.68
2019-01-25T17:38:50.853Z,18.70
2019-01-25T17:41:21.192Z,17.27
2019-01-25T17:43:51.533Z,18.90
2019-01-25T17:46:23.021Z,20.00
2019-01-25T17:48:53.385Z,22.25
2019-01-25T17:51:23.743Z,18.57
2019-01-25T17:53:54.091Z,25.43
2019-01-25T17:56:24.491Z,22.15
2019-01-25T17:58:54.829Z,19.73
2019-01-25T18:01:25.192Z,20.23
2019-01-25T18:03:55.506Z,20.80
2019-01-25T18:06:25.923Z,23.12
2019-01-25T18:08:57.305Z,20.75
2019-01-25T18:11:27.657Z,22.00
2019-01-25T18:13:57.993Z,19.37
2019-01-25T18:16:28.397Z,19.23
2019-01-25T18:18:58.706Z,20.48
2019-01-25T18:21:29.038Z,19.02
2019-01-25T18:23:59.385Z,23.92
2019-01-25T18:26:29.741Z,21.82
2019-01-25T18:29:09.730Z,19.23
2019-01-25T18:31:40.141Z,16.97
2019-01-25T18:34:10.513Z,19.50
2019-01-25T18:36:41.299Z,20.08
2019-01-25T18:39:12.765Z,21.25
2019-01-25T18:41:43.174Z,24.25
2019-01-25T18:44:13.800Z,18.85
2019-01-25T18:46:44.713Z,22.87
2019-01-25T18:49:15.025Z,22.17
2019-01-25T18:51:45.385Z,16.80
2019-01-25T18:54:15.709Z,19.23
2019-01-25T18:56:48.337Z,24.50
2019-01-25T18:59:18.683Z,19.82
2019-01-25T19:01:49.038Z,19.87
2019-01-25T19:04:19.481Z,18.27
2019-01-25T19:06:50.961Z,30.20
2019-01-25T19:09:21.381Z,26.17
2019-01-25T19:11:52.115Z,25.00
2019-01-25T19:14:22.525Z,21.57
2019-01-25T19:16:53.724Z,20.40
2019-01-25T19:19:24.131Z,25.37
2019-01-25T19:21:57.689Z,24.12
2019-01-25T19:24:28.183Z,26.45
2019-01-25T19:26:58.604Z,24.12
2019-01-25T19:29:28.959Z,22.75
2019-01-25T19:31:59.341Z,25.02
2019-01-25T19:34:29.673Z,19.62
2019-01-25T19:37:00.002Z,27.58
2019-01-25T19:39:31.349Z,28.62
2019-01-25T19:42:01.705Z,20.43
2019-01-25T19:44:32.069Z,22.00
2019-01-25T19:47:03.475Z,23.47
2019-01-25T19:49:33.893Z,30.95
2019-01-25T19:52:04.781Z,25.32
2019-01-25T19:54:35.160Z,25.17
2019-01-25T19:57:05.900Z,23.02
2019-01-25T19:59:36.261Z,25.70
2019-01-25T20:02:06.797Z,26.33
2019-01-25T20:04:37.211Z,26.23
2019-01-25T20:07:07.602Z,28.45
2019-01-25T20:09:38.073Z,26.73
2019-01-25T20:12:08.545Z,29.35
2019-01-25T20:14:39.071Z,20.82
2019-01-25T20:17:10.337Z,27.93
2019-01-25T20:19:41.629Z,26.80
2019-01-25T20:22:12.949Z,29.50
2019-01-25T20:24:43.386Z,24.92
2019-01-25T20:27:13.770Z,21.55
2019-01-25T20:29:44.128Z,22.42
2019-01-25T20:32:14.621Z,29.60
2019-01-25T20:34:45.045Z,29.45
2019-01-25T20:37:15.367Z,26.68
2019-01-25T20:39:45.721Z,29.82
2019-01-25T20:42:16.055Z,28.00
2019-01-25T20:44:46.397Z,25.80
2019-01-25T20:47:16.733Z,28.52
2019-01-25T20:49:47.781Z,26.93
2019-01-25T20:52:18.097Z,19.50
2019-01-25T20:54:48.463Z,32.15
2019-01-25T20:57:18.787Z,26.90
2019-01-25T20:59:49.143Z,20.85
2019-01-25T21:02:19.458Z,28.42
2019-01-25T21:04:49.809Z,22.40
2019-01-25T21:07:20.207Z,25.15
2019-01-25T21:09:50.529Z,23.57
2019-01-25T21:12:20.897Z,24.60
2019-01-25T21:14:51.317Z,22.62
2019-01-25T21:17:21.688Z,24.18
2019-01-25T21:19:52.438Z,30.17
2019-01-25T21:22:22.849Z,23.40
2019-01-25T21:24:53.428Z,23.15
2019-01-25T21:27:23.782Z,20.92
2019-01-25T21:29:54.161Z,19.87
2019-01-25T21:32:24.487Z,26.10
2019-01-25T21:34:55.013Z,27.27
2019-01-25T21:37:25.337Z,23.07
2019-01-25T21:39:56.073Z,23.90
2019-01-25T21:42:28.018Z,26.85
2019-01-25T21:44:58.397Z,27.67
2019-01-25T21:47:28.759Z,25.17
2019-01-25T21:50:00.353Z,23.35
2019-01-25T21:52:30.709Z,19.75
2019-01-25T21:55:01.067Z,26.73
2019-01-25T21:57:31.405Z,26.48
2019-01-25T22:00:01.769Z,25.32
2019-01-25T22:02:32.141Z,26.15
2019-01-25T22:05:02.491Z,30.48
2019-01-25T22:07:32.891Z,28.90
2019-01-25T22:10:03.220Z,20.57
2019-01-25T22:12:33.597Z,29.55
2019-01-25T22:15:04.030Z,26.20
2019-01-25T22:17:34.413Z,26.57
2019-01-25T22:20:06.955Z,24.75
2019-01-25T22:22:37.368Z,27.42
2019-01-25T22:25:08.297Z,24.57
2019-01-25T22:27:38.608Z,29.87
2019-01-25T22:30:11.907Z,19.82
2019-01-25T22:32:42.562Z,26.12
2019-01-25T22:35:12.932Z,23.05
2019-01-25T22:37:43.365Z,24.65
2019-01-25T22:40:19.344Z,22.20
2019-01-25T22:42:49.678Z,24.27
2019-01-25T22:45:21.739Z,25.90
2019-01-25T22:47:52.065Z,21.93
2019-01-25T22:50:24.931Z,28.55
2019-01-25T22:52:55.289Z,24.18
2019-01-25T22:55:26.306Z,22.13
2019-01-25T22:57:56.649Z,33.23
2019-01-25T23:01:19.838Z,27.50
2019-01-25T23:04:46.500Z,26.23
2019-01-25T23:07:25.977Z,26.17
2019-01-25T23:09:58.572Z,29.20
2019-01-25T23:12:28.904Z,26.85
2019-01-25T23:14:59.242Z,32.95
2019-01-25T23:17:29.556Z,28.17
2019-01-25T23:20:01.010Z,34.30
2019-01-25T23:22:32.808Z,32.93
2019-01-25T23:25:03.156Z,33.60
2019-01-25T23:27:33.488Z,30.65
2019-01-25T23:30:03.816Z,33.20
2019-01-25T23:32:34.250Z,30.23
2019-01-25T23:35:05.301Z,32.28
2019-01-25T23:37:35.983Z,31.65
2019-01-25T23:40:09.106Z,35.10
2019-01-25T23:42:40.439Z,29.55
2019-01-25T23:45:12.107Z,32.25
2019-01-25T23:47:43.451Z,28.38
2019-01-25T23:50:13.777Z,32.42
2019-01-25T23:52:44.579Z,30.10
2019-01-25T23:55:15.022Z,33.88
2019-01-25T23:57:45.425Z,33.30
